Carlos Paz

Scout - Defensa y Justicia
6 Aug 2028
Sonntag
Verarbeitung

Persönlichkeit

Anpassungsfähigkeit (3) Ehrgeiz (14) Kontroverse (12) Loyalität (4) Druck (11) Professionalität (7) Fairness (14) Temperament (1)

Profil

Trainerstil Demokratisch
Lizenz Kontinentale Pro
Entschlossenheit 6
Menschenführung 7
Motivation 7
Disziplin 8
Arbeitszufriedenheit
91%
Ermüdung
0%
Rolle Scout
Gehalt 41.9K p/W
Vertrag 14.03.2029

Leistung

Verhalten Gut
Trainingseffektivität
40%
Spielerentwicklung
55%
Verletzungsprävention
55%
Taktische Umsetzung
60%

Letzte Ereignisse

Nahm an einer Scouting-Besprechung teil 7T her
Nahm an einer Scouting-Besprechung teil 14T her
Nahm an einer Scouting-Besprechung teil 21T her
Nahm an einer Scouting-Besprechung teil 28T her
Nahm an einer Scouting-Besprechung teil 35T her
Nahm an einer Scouting-Besprechung teil 42T her
Nahm an einer Scouting-Besprechung teil 49T her
Nahm an einer Scouting-Besprechung teil 56T her

Aktuell beobachtet

63
Spieler Verein Status Fähigkeit Vertrauen Beobachtet Zuletzt beobachtet Letzte Stimme
Joe Gelhardt Hull City Aktiv 138 / 118 40% 1 28.11.2026 -
Hidemasa Morita Hull City Aktiv 128 / 137 40% 1 26.11.2026 -
Bongani Zungu Ajax Cape Town Aktiv 120 / 134 40% 1 24.11.2026 -
Isaac Matondo Koper Aktiv 99 / 110 40% 1 23.11.2026 -
Josh Coburn Millwall Aktiv 106 / 127 40% 1 23.11.2026 -
Petar Stanić Ludogorets Aktiv 137 / 134 40% 1 20.11.2026 -
Jesus Ferreira Seattle Sounders Aktiv 115 / 134 40% 1 17.11.2026 -
Bienvenue Kanakimana Zbrojovka Brno Aktiv 127 / 123 40% 1 17.11.2026 -
Tiago Pucciarelli IF Elfsborg Aktiv 104 / 94 40% 1 14.11.2026 -
Aune Heggebø West Bromwich Albion Aktiv 122 / 134 40% 1 13.11.2026 -
Manu Morlanes Mallorca Aktiv 149 / 145 40% 1 13.11.2026 -
Jack McGlynn Stoke City Aktiv 131 / 138 40% 1 12.11.2026 -
Matej Trusa DAC Dunajska Streda Aktiv 102 / 123 40% 1 08.11.2026 -
Jáder Valencia Deportes Tolima Aktiv 106 / 107 40% 1 08.11.2026 -
Reda Khadra Qarabag Aktiv 117 / 130 40% 2 06.11.2026 -
Antony Alonso Deportivo Riestra Aktiv 127 / 124 40% 1 05.11.2026 -
Alex Luna Instituto Aktiv 125 / 128 40% 1 04.11.2026 -
Edu Expósito Espanyol Aktiv 137 / 139 40% 1 03.11.2026 Mehr Infos nötig
Marco Pašalić Orlando City Aktiv 125 / 138 40% 2 01.11.2026 -
Armstrong Oko-Flex Levski Aktiv 108 / 131 40% 1 31.10.2026 -
Alexis Alégué Zbrojovka Brno Aktiv 119 / 129 40% 1 30.10.2026 -
Finn Azaz Southampton Aktiv 128 / 136 40% 1 28.10.2026 -
Matías Contrera Hrvatski Dragovoljac Aktiv 96 / 109 40% 1 26.10.2026 -
Alexander Aravena Portland Timbers Aktiv 121 / 118 40% 1 26.10.2026 -
Sorba Thomas Stoke City Aktiv 137 / 117 40% 1 23.10.2026 -
Tadeo Allende Inter Miami CF Aktiv 134 / 123 40% 2 21.10.2026 -
Oladapo Afolayan Blackburn Rovers Aktiv 120 / 132 40% 2 21.10.2026 -
Ivo Mammini Beitar Jerusalem Aktiv 120 / 125 40% 1 15.10.2026 -
Jack Rudoni Coventry City Aktiv 127 / 141 40% 1 13.10.2026 -
Ramiro Ruiz Rodríguez Atlético Tucumán Aktiv 110 / 124 40% 1 12.10.2026 -
Nicolò Tresoldi Club Brugge Aktiv 140 / 136 40% 1 11.10.2026 -
Bruno Larregui Juventud Aktiv 118 / 114 40% 1 11.10.2026 -
Alejo Cruz Juventud Aktiv 120 / 118 40% 2 08.10.2026 -
Agustín Gallo Tristán Suárez Aktiv 120 / 120 40% 1 08.10.2026 -
Juninho Pumas UNAM Aktiv 126 / 129 40% 1 07.10.2026 -
Agustín Palavecino Cruz Azul Aktiv 126 / 134 40% 3 06.10.2026 -
Jorge Sánchez Atlas Aktiv 142 / 140 40% 1 06.10.2026 -
Erik Lira Cruz Azul Aktiv 126 / 126 40% 2 29.09.2026 -
Ramiro Sordo Santos Laguna Aktiv 107 / 121 40% 1 29.09.2026 -
Sebastián Córdova Pumas UNAM Aktiv 125 / 119 40% 1 27.09.2026 -
Esteban da Silva Racing Aktiv 109 / 105 40% 1 24.09.2026 -
Esteban Obregón Montevideo City Torque Aktiv 108 / 123 40% 1 23.09.2026 -
Eric Ramírez Ankaragucu Aktiv 118 / 108 40% 1 23.09.2026 -
Ferland Mendy Real Madrid Aktiv 142 / 146 40% 1 21.09.2026 -
Santiago González Sporting Cristal Aktiv 118 / 116 40% 1 21.09.2026 -
Sebastián Moreno Patriotas Aktiv 92 / 99 40% 2 19.09.2026 -
Ezequiel Bullaude Santos Laguna Aktiv 129 / 115 40% 1 16.09.2026 -
Ismaël Bennacer Boca Juniors Aktiv 142 / 137 40% 1 16.09.2026 -
Wessam Abou Ali Columbus Crew Aktiv 141 / 139 40% 1 14.09.2026 -
Gerardo Arteaga Monterrey Aktiv 131 / 128 40% 1 12.09.2026 -
Carlos Álvarez Club America Aktiv 129 / 146 40% 1 10.09.2026 -
Adonis Preciado Tijuana Aktiv 113 / 120 40% 1 10.09.2026 -
Myrto Uzuni Austin FC Aktiv 118 / 136 40% 1 15.08.2026 -
Lewis Morgan Toronto FC Aktiv 125 / 131 40% 1 12.08.2026 -
Jordan Morris Seattle Sounders Aktiv 118 / 136 40% 1 12.08.2026 -
Bongani Khune SuperSport United Aktiv 118 / 119 40% 1 11.08.2026 -
Alexandr Sobolev Zenit Aktiv 123 / 122 40% 1 11.08.2026 -
Juan Sierra La Equidad Aktiv 129 / 136 40% 1 09.08.2026 -
Luis Romo Guadalajara Aktiv 145 / 149 40% 1 09.08.2026 -
Hugo Cuypers Monterrey Aktiv 136 / 136 40% 1 07.08.2026 -
James Herrera La Equidad Aktiv 127 / 125 40% 1 04.08.2026 -
César Inga Universitario Aktiv 126 / 134 40% 1 04.08.2026 -
Jesús Gallardo Toluca Aktiv 120 / 140 40% 1 02.08.2026 -